createdAt,value
2023-03-08T00:01:32.085Z,6.45
2023-03-08T00:04:01.156Z,11.40
2023-03-08T00:06:29.174Z,9.43
2023-03-08T00:08:57.737Z,7.80
2023-03-08T00:11:25.660Z,6.80
2023-03-08T00:13:53.804Z,9.77
2023-03-08T00:16:23.151Z,8.73
2023-03-08T00:18:51.064Z,6.15
2023-03-08T00:21:19.290Z,12.60
2023-03-08T00:23:47.260Z,10.50
2023-03-08T00:26:15.212Z,9.93
2023-03-08T00:28:43.426Z,8.45
2023-03-08T00:31:12.819Z,6.22
2023-03-08T00:33:42.129Z,7.45
2023-03-08T00:36:12.941Z,8.00
2023-03-08T00:38:40.781Z,5.93
2023-03-08T00:41:08.695Z,5.50
2023-03-08T00:43:36.776Z,8.15
2023-03-08T00:46:04.747Z,8.43
2023-03-08T00:48:32.736Z,5.95
2023-03-08T00:51:02.004Z,6.45
2023-03-08T00:53:31.141Z,6.60
2023-03-08T00:55:59.772Z,4.55
2023-03-08T00:58:30.737Z,4.78
2023-03-08T01:00:58.789Z,5.57
2023-03-08T01:03:26.900Z,5.90
2023-03-08T01:05:57.114Z,5.03
2023-03-08T01:08:26.811Z,6.13
2023-03-08T01:10:56.858Z,7.93
2023-03-08T01:13:25.379Z,6.32
2023-03-08T01:15:53.259Z,4.10
2023-03-08T01:18:21.186Z,4.18
2023-03-08T01:20:56.688Z,4.97
2023-03-08T01:23:26.087Z,3.92
2023-03-08T01:26:00.349Z,7.43
2023-03-08T01:28:28.256Z,5.15
2023-03-08T01:30:56.364Z,4.43
2023-03-08T01:33:25.095Z,3.70
2023-03-08T01:35:53.125Z,4.15
2023-03-08T01:38:21.000Z,4.03
2023-03-08T01:40:50.265Z,4.03
2023-03-08T01:43:25.643Z,4.78
2023-03-08T01:46:09.242Z,8.35
2023-03-08T01:48:38.114Z,3.78
2023-03-08T01:51:09.057Z,4.43
2023-03-08T01:53:37.115Z,3.67
2023-03-08T01:56:06.848Z,4.80
2023-03-08T01:58:34.869Z,3.08
2023-03-08T02:01:02.772Z,4.13
2023-03-08T02:03:30.921Z,4.47
2023-03-08T02:05:59.538Z,5.68
2023-03-08T02:08:27.445Z,3.40
2023-03-08T02:10:55.310Z,3.67
2023-03-08T02:13:25.241Z,3.35
2023-03-08T02:15:55.022Z,5.03
2023-03-08T02:18:23.829Z,6.15
2023-03-08T02:20:51.733Z,2.63
2023-03-08T02:23:21.805Z,4.60
2023-03-08T02:25:52.317Z,4.03
2023-03-08T02:28:20.734Z,5.03
2023-03-08T02:30:48.637Z,2.95
2023-03-08T02:33:16.829Z,3.38
2023-03-08T02:35:44.853Z,4.32
2023-03-08T02:38:13.712Z,2.92
2023-03-08T02:40:43.004Z,4.35
2023-03-08T02:43:11.328Z,3.53
2023-03-08T02:45:41.080Z,2.22
2023-03-08T02:48:09.734Z,3.00
2023-03-08T02:50:37.821Z,3.80
2023-03-08T02:53:05.785Z,2.50
2023-03-08T02:55:36.039Z,2.25
2023-03-08T02:58:09.754Z,1.98
2023-03-08T03:00:37.849Z,4.45
2023-03-08T03:03:05.809Z,2.38
2023-03-08T03:05:33.665Z,2.35
2023-03-08T03:08:05.442Z,2.10
2023-03-08T03:10:33.396Z,3.35
2023-03-08T03:13:02.654Z,2.10
2023-03-08T03:15:34.187Z,2.30
2023-03-08T03:18:02.241Z,1.67
2023-03-08T03:20:30.357Z,1.88
2023-03-08T03:22:59.181Z,2.40
2023-03-08T03:25:38.315Z,2.55
2023-03-08T03:28:08.498Z,2.20
2023-03-08T03:30:40.597Z,2.92
2023-03-08T03:33:10.847Z,1.50
2023-03-08T03:35:39.303Z,3.35
2023-03-08T03:38:08.572Z,2.38
2023-03-08T03:40:36.953Z,1.77
2023-03-08T03:43:05.827Z,2.33
2023-03-08T03:45:33.874Z,2.65
2023-03-08T03:48:03.216Z,2.42
2023-03-08T03:50:31.717Z,2.10
2023-03-08T03:53:05.034Z,2.72
2023-03-08T03:55:33.313Z,1.90
2023-03-08T03:58:03.563Z,1.83
2023-03-08T04:00:32.238Z,1.65
2023-03-08T04:03:12.864Z,2.50
2023-03-08T04:05:40.893Z,2.33
2023-03-08T04:08:09.275Z,1.42
2023-03-08T04:10:40.213Z,3.88
2023-03-08T04:13:09.656Z,2.50
2023-03-08T04:15:37.560Z,1.10
2023-03-08T04:18:09.493Z,1.23
2023-03-08T04:20:42.986Z,2.17
2023-03-08T04:23:10.897Z,2.17
2023-03-08T04:25:41.962Z,3.17
2023-03-08T04:28:11.716Z,2.10
2023-03-08T04:30:40.353Z,2.17
2023-03-08T04:33:08.564Z,1.30
2023-03-08T04:35:46.080Z,2.47
2023-03-08T04:38:15.907Z,2.65
2023-03-08T04:41:02.572Z,1.88
2023-03-08T04:43:36.715Z,1.20
2023-03-08T04:46:05.032Z,1.98
2023-03-08T04:48:33.904Z,1.60
2023-03-08T04:51:04.989Z,1.70
2023-03-08T04:53:33.501Z,1.05
2023-03-08T04:56:01.659Z,2.78
2023-03-08T04:58:29.926Z,1.80
2023-03-08T05:00:58.250Z,3.58
2023-03-08T05:03:26.246Z,1.70
2023-03-08T05:05:56.176Z,1.63
2023-03-08T05:08:26.429Z,2.08
2023-03-08T05:11:00.193Z,1.92
2023-03-08T05:13:31.696Z,1.10
2023-03-08T05:16:00.229Z,0.95
2023-03-08T05:18:29.248Z,2.30
2023-03-08T05:20:57.660Z,2.00
2023-03-08T05:23:28.665Z,2.35
2023-03-08T05:25:58.515Z,3.10
2023-03-08T05:28:27.579Z,1.98
2023-03-08T05:31:01.938Z,1.33
2023-03-08T05:33:29.949Z,1.98
2023-03-08T05:35:58.104Z,1.95
2023-03-08T05:38:28.451Z,3.92
2023-03-08T05:40:56.758Z,1.95
2023-03-08T05:43:24.646Z,2.85
2023-03-08T05:45:57.070Z,1.27
2023-03-08T05:48:26.110Z,2.75
2023-03-08T05:50:54.650Z,1.95
2023-03-08T05:53:23.028Z,1.30
2023-03-08T05:55:52.557Z,1.77
2023-03-08T05:58:20.864Z,2.05
2023-03-08T06:00:48.731Z,3.33
2023-03-08T06:03:16.795Z,2.60
2023-03-08T06:05:46.018Z,6.20
2023-03-08T06:08:14.190Z,2.15
2023-03-08T06:10:42.100Z,1.55
2023-03-08T06:13:11.347Z,3.65
2023-03-08T06:15:39.285Z,3.05
2023-03-08T06:18:07.602Z,4.50
2023-03-08T06:20:35.608Z,2.45
2023-03-08T06:23:03.505Z,2.38
2023-03-08T06:25:32.446Z,3.42
2023-03-08T06:28:00.860Z,5.68
2023-03-08T06:30:41.004Z,2.60
2023-03-08T06:33:08.936Z,2.20
2023-03-08T06:35:36.958Z,2.42
2023-03-08T06:38:06.606Z,1.92
2023-03-08T06:40:35.340Z,3.33
2023-03-08T06:43:03.531Z,3.40
2023-03-08T06:45:33.717Z,2.80
2023-03-08T06:48:04.050Z,11.43
2023-03-08T06:50:31.944Z,33.88
2023-03-08T06:52:59.955Z,54.20
2023-03-08T06:55:45.580Z,50.17
2023-03-08T06:58:13.491Z,81.10
2023-03-08T07:00:41.371Z,64.78
2023-03-08T07:03:11.207Z,91.45
2023-03-08T07:05:39.066Z,92.80
2023-03-08T07:08:07.148Z,56.40
2023-03-08T07:10:35.159Z,59.25
2023-03-08T07:13:03.067Z,82.10
2023-03-08T07:15:31.070Z,82.78
2023-03-08T07:17:59.643Z,67.18
2023-03-08T07:20:28.892Z,78.78
2023-03-08T07:22:57.374Z,63.13
2023-03-08T07:25:25.278Z,55.45
2023-03-08T07:27:53.146Z,60.80
2023-03-08T07:30:21.128Z,53.40
2023-03-08T07:32:49.165Z,52.10
2023-03-08T07:35:17.146Z,42.42
2023-03-08T07:37:47.115Z,48.55
2023-03-08T07:40:16.278Z,42.38
2023-03-08T07:42:44.310Z,41.13
2023-03-08T07:45:25.637Z,36.13
2023-03-08T07:47:53.636Z,34.28
2023-03-08T07:50:21.876Z,35.05
2023-03-08T07:52:51.170Z,32.42
2023-03-08T07:55:19.203Z,29.73
2023-03-08T07:57:47.091Z,35.55
2023-03-08T08:00:15.883Z,25.08
2023-03-08T08:02:43.882Z,28.45
2023-03-08T08:05:11.887Z,35.67
2023-03-08T08:07:39.872Z,30.38
2023-03-08T08:10:10.409Z,21.58
2023-03-08T08:12:38.307Z,31.10
2023-03-08T08:15:06.997Z,25.77
2023-03-08T08:17:34.948Z,27.50
2023-03-08T08:20:02.845Z,21.05
2023-03-08T08:22:30.797Z,22.60
2023-03-08T08:24:58.724Z,25.50
2023-03-08T08:27:28.064Z,25.27
2023-03-08T08:29:56.218Z,25.05
2023-03-08T08:32:24.208Z,16.90
2023-03-08T08:34:52.350Z,20.48
2023-03-08T08:37:20.261Z,24.73
2023-03-08T08:39:48.156Z,24.55
2023-03-08T08:42:16.043Z,19.25
2023-03-08T08:44:45.246Z,23.70
2023-03-08T08:47:13.209Z,22.73
2023-03-08T08:49:41.554Z,18.65
2023-03-08T08:52:09.399Z,19.30
2023-03-08T08:54:39.943Z,21.27
2023-03-08T08:57:07.962Z,47.58
2023-03-08T08:59:36.100Z,53.97
2023-03-08T09:02:06.240Z,53.42
2023-03-08T09:04:34.315Z,66.47
2023-03-08T09:07:02.290Z,69.95
2023-03-08T09:09:30.317Z,60.45
2023-03-08T09:11:58.205Z,73.22
2023-03-08T09:14:26.427Z,61.47
2023-03-08T09:16:54.410Z,55.30
2023-03-08T09:19:23.706Z,69.10
2023-03-08T09:21:51.630Z,54.40
2023-03-08T09:24:19.603Z,48.10
2023-03-08T09:26:47.481Z,55.65
2023-03-08T09:29:15.489Z,44.22
2023-03-08T09:31:45.495Z,38.78
2023-03-08T09:34:14.883Z,46.95
2023-03-08T09:36:44.196Z,35.17
2023-03-08T09:39:13.731Z,44.10
2023-03-08T09:41:55.168Z,36.78
2023-03-08T09:44:45.630Z,37.95
2023-03-08T09:47:17.388Z,41.55
2023-03-08T09:49:46.507Z,31.05
2023-03-08T09:52:18.681Z,37.53
2023-03-08T09:54:46.563Z,30.38
2023-03-08T09:57:17.371Z,34.40
2023-03-08T09:59:54.138Z,29.33
2023-03-08T10:02:27.336Z,25.50
2023-03-08T10:05:11.805Z,30.33
2023-03-08T10:07:48.831Z,25.17
2023-03-08T10:10:33.847Z,29.80
2023-03-08T10:13:20.549Z,28.58
2023-03-08T10:15:50.896Z,29.55
2023-03-08T10:18:21.937Z,23.83
2023-03-08T10:20:50.925Z,24.77
2023-03-08T10:23:22.356Z,23.30
2023-03-08T10:25:51.094Z,22.85
2023-03-08T10:28:20.595Z,23.20
2023-03-08T10:30:49.668Z,24.25
2023-03-08T10:33:19.391Z,18.38
2023-03-08T10:35:58.711Z,23.48
2023-03-08T10:38:29.836Z,17.80
2023-03-08T10:41:02.153Z,22.05
2023-03-08T10:43:31.345Z,17.58
2023-03-08T10:46:00.964Z,20.02
2023-03-08T10:48:28.940Z,13.75
2023-03-08T10:51:00.867Z,16.92
2023-03-08T10:53:30.248Z,18.38
2023-03-08T10:55:59.535Z,14.80
2023-03-08T10:58:33.321Z,13.52
2023-03-08T11:01:02.214Z,13.52
2023-03-08T11:03:30.278Z,17.27
2023-03-08T11:05:59.714Z,12.30
2023-03-08T11:08:31.224Z,11.70
2023-03-08T11:11:03.364Z,14.80
2023-03-08T11:13:32.575Z,10.75
2023-03-08T11:16:09.109Z,17.23
2023-03-08T11:18:46.088Z,10.95
2023-03-08T11:21:15.564Z,11.50
2023-03-08T11:23:47.373Z,11.18
2023-03-08T11:26:19.575Z,11.52
2023-03-08T11:28:54.746Z,12.45
2023-03-08T11:31:27.391Z,14.45
2023-03-08T11:34:12.048Z,11.27
2023-03-08T11:36:41.589Z,15.07
2023-03-08T11:39:19.360Z,12.15
2023-03-08T11:41:52.009Z,15.10
2023-03-08T11:44:42.179Z,12.45
2023-03-08T11:47:40.477Z,12.60
2023-03-08T11:50:11.726Z,13.15
2023-03-08T11:52:43.438Z,12.90
2023-03-08T11:55:32.026Z,9.55
2023-03-08T11:58:02.870Z,9.80
2023-03-08T12:00:34.198Z,11.30
2023-03-08T12:03:05.905Z,8.73
2023-03-08T12:05:35.269Z,15.35
2023-03-08T12:08:04.254Z,11.05
2023-03-08T12:10:37.811Z,8.65
2023-03-08T12:13:07.834Z,10.30
2023-03-08T12:15:38.693Z,9.18
2023-03-08T12:18:10.132Z,8.18
2023-03-08T12:20:40.711Z,9.20
2023-03-08T12:23:14.673Z,9.13
2023-03-08T12:25:44.496Z,8.73
2023-03-08T12:28:14.679Z,6.50
2023-03-08T12:30:49.255Z,10.80
2023-03-08T12:33:17.531Z,6.53
2023-03-08T12:35:52.823Z,6.90
2023-03-08T12:38:31.729Z,8.57
2023-03-08T12:41:01.044Z,13.98
2023-03-08T12:43:30.385Z,10.63
2023-03-08T12:46:06.923Z,10.55
2023-03-08T12:48:37.542Z,11.30
2023-03-08T12:51:09.611Z,8.18
2023-03-08T12:53:39.503Z,11.60
2023-03-08T12:56:26.020Z,10.00
2023-03-08T12:58:55.716Z,7.60
2023-03-08T13:01:35.721Z,11.00
2023-03-08T13:04:04.228Z,8.93
2023-03-08T13:06:51.572Z,9.70
2023-03-08T13:09:21.939Z,10.52
2023-03-08T13:11:53.248Z,8.57
2023-03-08T13:14:26.205Z,10.30
2023-03-08T13:16:54.327Z,9.35
2023-03-08T13:19:26.426Z,13.43
2023-03-08T13:22:01.489Z,13.43
2023-03-08T13:24:37.796Z,12.20
2023-03-08T13:27:15.009Z,12.27
2023-03-08T13:29:43.667Z,10.13
2023-03-08T13:32:16.485Z,10.57
2023-03-08T13:34:46.293Z,11.20
2023-03-08T13:37:23.886Z,12.45
2023-03-08T13:39:55.168Z,8.75
2023-03-08T13:42:25.652Z,10.65
2023-03-08T13:44:53.573Z,10.85
2023-03-08T13:47:24.830Z,9.73
2023-03-08T13:49:53.711Z,9.60
2023-03-08T13:52:22.397Z,8.77
2023-03-08T13:54:52.220Z,14.30
2023-03-08T13:57:22.235Z,10.43
2023-03-08T13:59:52.355Z,13.63
2023-03-08T14:02:22.551Z,9.90
2023-03-08T14:04:50.876Z,7.22
2023-03-08T14:07:22.480Z,9.48
2023-03-08T14:09:50.579Z,8.77
2023-03-08T14:12:20.084Z,11.68
2023-03-08T14:14:49.382Z,7.47
2023-03-08T14:17:21.181Z,8.85
2023-03-08T14:19:53.737Z,9.20
2023-03-08T14:22:37.714Z,7.55
2023-03-08T14:25:07.693Z,6.97
2023-03-08T14:27:38.753Z,10.52
2023-03-08T14:30:13.414Z,10.70
2023-03-08T14:32:43.649Z,8.70
2023-03-08T14:35:17.460Z,9.80
2023-03-08T14:37:45.736Z,8.27
2023-03-08T14:40:22.025Z,8.88
2023-03-08T14:42:51.602Z,8.40
2023-03-08T14:45:22.219Z,7.85
2023-03-08T14:47:52.563Z,6.00
2023-03-08T14:50:22.462Z,7.95
2023-03-08T14:52:51.316Z,8.70
2023-03-08T14:55:23.898Z,8.15
2023-03-08T14:57:53.375Z,6.75
2023-03-08T15:00:22.350Z,9.75
2023-03-08T15:02:51.721Z,8.75
2023-03-08T15:05:28.893Z,6.75
2023-03-08T15:07:59.228Z,8.32
2023-03-08T15:10:29.212Z,7.53
2023-03-08T15:12:57.364Z,5.30
2023-03-08T15:15:25.466Z,7.35
2023-03-08T15:17:54.738Z,7.15
2023-03-08T15:20:23.273Z,7.18
2023-03-08T15:22:52.537Z,9.02
2023-03-08T15:25:24.049Z,7.43
2023-03-08T15:27:52.144Z,9.18
2023-03-08T15:30:21.407Z,7.03
2023-03-08T15:32:49.491Z,5.30
2023-03-08T15:35:19.698Z,7.13
2023-03-08T15:37:47.654Z,7.18
2023-03-08T15:40:16.896Z,7.75
2023-03-08T15:42:44.742Z,9.88
2023-03-08T15:45:13.076Z,6.82
2023-03-08T15:47:41.014Z,7.03
2023-03-08T15:50:14.608Z,8.52
2023-03-08T15:52:43.897Z,6.15
2023-03-08T15:55:12.756Z,7.63
2023-03-08T15:57:40.671Z,8.77
2023-03-08T16:00:10.383Z,6.90
2023-03-08T16:02:38.885Z,7.38
2023-03-08T16:05:08.048Z,8.50
2023-03-08T16:07:36.079Z,6.80
2023-03-08T16:10:06.575Z,7.93
2023-03-08T16:12:34.459Z,7.53
2023-03-08T16:15:02.393Z,7.63
2023-03-08T16:17:30.682Z,5.20
2023-03-08T16:19:58.567Z,6.78
2023-03-08T16:22:28.789Z,12.15
2023-03-08T16:24:56.808Z,9.88
2023-03-08T16:27:26.028Z,7.00
2023-03-08T16:29:54.071Z,15.10
2023-03-08T16:32:22.052Z,10.45
2023-03-08T16:34:51.163Z,9.57
2023-03-08T16:37:19.827Z,7.93
2023-03-08T16:39:49.976Z,8.48
2023-03-08T16:42:18.179Z,7.97
2023-03-08T16:44:51.657Z,12.95
2023-03-08T16:47:19.553Z,8.10
2023-03-08T16:49:47.490Z,5.55
2023-03-08T16:52:15.857Z,9.38
2023-03-08T16:54:43.870Z,7.22
2023-03-08T16:57:18.765Z,8.65
2023-03-08T16:59:47.747Z,7.60
2023-03-08T17:02:18.109Z,7.22
2023-03-08T17:04:46.181Z,8.95
2023-03-08T17:07:14.218Z,10.00
2023-03-08T17:09:42.203Z,6.88
2023-03-08T17:12:10.453Z,8.88
2023-03-08T17:14:38.550Z,12.35
2023-03-08T17:17:06.543Z,6.53
2023-03-08T17:19:35.771Z,6.75
2023-03-08T17:22:03.730Z,8.30
2023-03-08T17:24:32.368Z,11.35
2023-03-08T17:27:00.372Z,7.82
2023-03-08T17:29:28.291Z,9.85
2023-03-08T17:31:56.158Z,7.55
2023-03-08T17:34:24.258Z,7.38
2023-03-08T17:36:53.497Z,7.53
2023-03-08T17:39:21.444Z,6.70
2023-03-08T17:41:49.378Z,6.93
2023-03-08T17:44:17.278Z,8.35
2023-03-08T17:46:45.214Z,8.30
2023-03-08T17:49:13.985Z,5.93
2023-03-08T17:51:42.529Z,7.13
2023-03-08T17:54:11.922Z,7.03
2023-03-08T17:56:40.948Z,8.18
2023-03-08T17:59:08.904Z,6.80
2023-03-08T18:01:37.170Z,7.47
2023-03-08T18:04:05.932Z,7.82
2023-03-08T18:06:35.207Z,8.85
2023-03-08T18:09:05.066Z,6.95
2023-03-08T18:11:37.485Z,8.48
2023-03-08T18:14:05.701Z,7.65
2023-03-08T18:16:33.764Z,7.03
2023-03-08T18:19:02.301Z,6.97
2023-03-08T18:21:30.922Z,8.23
2023-03-08T18:23:58.962Z,12.05
2023-03-08T18:26:26.982Z,10.00
2023-03-08T18:28:56.198Z,10.95
2023-03-08T18:31:26.142Z,8.07
2023-03-08T18:33:55.185Z,9.30
2023-03-08T18:36:23.296Z,9.45
2023-03-08T18:38:51.225Z,11.60
2023-03-08T18:41:22.531Z,8.57
2023-03-08T18:43:51.022Z,9.30
2023-03-08T18:46:22.437Z,11.27
2023-03-08T18:48:51.986Z,9.25
2023-03-08T18:51:19.843Z,8.98
2023-03-08T18:53:47.700Z,16.77
2023-03-08T18:56:15.581Z,13.85
2023-03-08T18:58:43.490Z,15.38
2023-03-08T19:01:11.991Z,11.65
2023-03-08T19:03:41.321Z,7.93
2023-03-08T19:06:09.242Z,13.82
2023-03-08T19:08:37.204Z,9.13
2023-03-08T19:11:12.169Z,10.00
2023-03-08T19:13:40.137Z,13.45
2023-03-08T19:16:14.108Z,11.45
2023-03-08T19:18:43.329Z,10.95
2023-03-08T19:21:16.299Z,14.80
2023-03-08T19:23:44.204Z,12.27
2023-03-08T19:26:31.354Z,10.15
2023-03-08T19:29:00.508Z,7.30
2023-03-08T19:31:28.429Z,11.73
2023-03-08T19:33:57.702Z,14.18
2023-03-08T19:36:25.640Z,8.80
2023-03-08T19:38:53.555Z,9.30
2023-03-08T19:41:21.473Z,9.52
2023-03-08T19:43:49.372Z,10.00
2023-03-08T19:46:17.852Z,8.75
2023-03-08T19:48:46.095Z,11.32
2023-03-08T19:51:15.479Z,10.77
2023-03-08T19:53:43.536Z,8.90
2023-03-08T19:56:14.892Z,8.48
2023-03-08T19:58:42.857Z,8.30
2023-03-08T20:01:11.800Z,9.60
2023-03-08T20:03:39.710Z,6.95
2023-03-08T20:06:07.741Z,7.68
2023-03-08T20:08:38.321Z,8.18
2023-03-08T20:11:06.621Z,8.70
2023-03-08T20:13:34.679Z,7.43
2023-03-08T20:16:02.642Z,9.65
2023-03-08T20:18:30.513Z,7.13
2023-03-08T20:20:59.208Z,6.78
2023-03-08T20:23:27.229Z,7.28
2023-03-08T20:25:56.585Z,6.68
2023-03-08T20:28:24.550Z,12.63
2023-03-08T20:30:52.495Z,7.32
2023-03-08T20:33:20.514Z,10.57
2023-03-08T20:35:56.592Z,8.20
2023-03-08T20:38:24.606Z,7.13
2023-03-08T20:41:03.960Z,8.02
2023-03-08T20:43:32.387Z,7.60
2023-03-08T20:46:05.775Z,7.80
2023-03-08T20:48:33.868Z,9.85
2023-03-08T20:51:01.831Z,7.80
2023-03-08T20:53:29.794Z,8.27
2023-03-08T20:55:57.683Z,7.40
2023-03-08T20:58:27.037Z,7.72
2023-03-08T21:00:54.967Z,8.02
2023-03-08T21:03:22.901Z,7.47
2023-03-08T21:05:50.830Z,6.32
2023-03-08T21:08:19.735Z,6.88
2023-03-08T21:10:47.673Z,8.30
2023-03-08T21:13:15.646Z,5.43
2023-03-08T21:15:44.976Z,8.77
2023-03-08T21:18:12.972Z,9.57
2023-03-08T21:20:40.865Z,6.03
2023-03-08T21:23:08.792Z,6.55
2023-03-08T21:25:36.879Z,8.38
2023-03-08T21:28:05.543Z,13.68
2023-03-08T21:30:33.729Z,9.40
2023-03-08T21:33:02.989Z,9.30
2023-03-08T21:35:30.914Z,14.45
2023-03-08T21:37:58.807Z,11.73
2023-03-08T21:40:26.699Z,10.68
2023-03-08T21:42:54.571Z,7.05
2023-03-08T21:45:22.486Z,11.75
2023-03-08T21:47:50.338Z,16.05
2023-03-08T21:50:19.845Z,8.45
2023-03-08T21:52:47.723Z,13.15
2023-03-08T21:55:15.619Z,8.98
2023-03-08T21:57:43.470Z,8.90
2023-03-08T22:00:13.233Z,7.07
2023-03-08T22:02:44.932Z,8.52
2023-03-08T22:05:13.780Z,9.60
2023-03-08T22:07:43.018Z,6.00
2023-03-08T22:10:12.442Z,9.10
2023-03-08T22:12:41.933Z,8.23
2023-03-08T22:15:11.694Z,7.50
2023-03-08T22:17:39.778Z,7.80
2023-03-08T22:20:10.550Z,6.45
2023-03-08T22:22:38.513Z,6.65
2023-03-08T22:25:08.506Z,10.05
2023-03-08T22:27:36.398Z,8.27
2023-03-08T22:30:05.109Z,9.82
2023-03-08T22:32:33.092Z,8.20
2023-03-08T22:35:01.027Z,8.50
2023-03-08T22:37:28.893Z,9.30
2023-03-08T22:39:56.786Z,7.15
2023-03-08T22:42:26.156Z,7.45
2023-03-08T22:44:54.031Z,10.13
2023-03-08T22:47:21.918Z,9.13
2023-03-08T22:49:51.174Z,7.70
2023-03-08T22:52:19.112Z,8.73
2023-03-08T22:54:46.961Z,7.03
2023-03-08T22:57:16.306Z,7.30
2023-03-08T22:59:46.836Z,8.82
2023-03-08T23:02:14.879Z,5.28
2023-03-08T23:04:42.781Z,8.02
2023-03-08T23:07:10.689Z,12.73
2023-03-08T23:09:38.778Z,6.72
2023-03-08T23:12:07.089Z,9.25
2023-03-08T23:14:35.068Z,6.68
2023-03-08T23:17:04.241Z,8.45
2023-03-08T23:19:32.126Z,6.70
2023-03-08T23:22:00.143Z,6.93
2023-03-08T23:24:28.014Z,6.65
2023-03-08T23:27:01.667Z,5.85
2023-03-08T23:29:29.568Z,7.20
2023-03-08T23:31:57.533Z,7.43
2023-03-08T23:34:26.789Z,6.75
2023-03-08T23:36:54.654Z,7.97
2023-03-08T23:39:22.594Z,6.63
2023-03-08T23:41:50.461Z,6.22
2023-03-08T23:44:18.457Z,7.70
2023-03-08T23:46:46.402Z,6.75
2023-03-08T23:49:16.852Z,6.60
2023-03-08T23:51:46.165Z,5.78
2023-03-08T23:54:14.025Z,6.65
2023-03-08T23:56:42.027Z,7.05
2023-03-08T23:59:12.132Z,7.18
